Time;durP1;ratioP1;P1;durP2;ratioP2;P2;SDS_P1;SDS_P2;PMS_P1;PMS_P2;Temp;Humidity;BMP_temperature;BMP_pressure;BME280_temperature;BME280_humidity;BME280_pressure;Samples;Min_cycle;Max_cycle;Signal;HPM_P1;HPM_P2
2022/05/28 00:00:07;;;;;;;;;;;;;;;11.10;52.31;100851.97;5032194;28;19908;-25
2022/05/28 00:02:32;;;;;;;;;;;;;;;11.04;53.12;100853.75;5045751;28;19909;-25
2022/05/28 00:04:57;;;;;;;;;;;;;;;11.00;52.96;100849.41;5045078;28;19920;-25
2022/05/28 00:07:23;;;;;;;;;;;;;;;10.99;53.27;100844.13;5043016;28;19923;-25
2022/05/28 00:09:48;;;;;;;;;;;;;;;10.96;53.51;100845.03;5045607;28;19909;-25
2022/05/28 00:12:13;;;;;;;;;;;;;;;10.90;53.65;100853.88;5041221;28;19913;-25
2022/05/28 00:14:39;;;;;;;;;;;;;;;10.91;53.82;100847.69;5041273;28;19956;-25
2022/05/28 00:17:05;;;;;;;;;;;;;;;10.90;54.37;100848.59;5042869;28;19955;-25
2022/05/28 00:19:30;;;;;;;;;;;;;;;10.89;54.29;100845.97;5029421;28;19917;-25
2022/05/28 00:21:55;;;;;;;;;;;;;;;10.90;54.19;100843.31;5051465;28;19908;-25
2022/05/28 00:24:21;;;;;;;;;;;;;;;10.90;54.20;100845.06;5044801;28;19917;-25
2022/05/28 00:26:46;;;;;;;;;;;;;;;10.88;54.16;100839.81;5043579;28;19917;-25
2022/05/28 00:29:11;;;;;;;;;;;;;;;10.89;54.44;100844.22;5045965;28;19908;-25
2022/05/28 00:31:37;;;;;;;;;;;;;;;10.85;54.83;100831.94;5043745;28;19921;-25
2022/05/28 00:34:08;;;;;;;;;;;;;;;10.86;54.96;100838.06;5046924;28;19913;-25
2022/05/28 00:36:33;;;;;;;;;;;;;;;10.86;54.89;100831.03;5028842;28;19920;-25
2022/05/28 00:39:01;;;;;;;;;;;;;;;10.84;55.01;100829.31;5045422;28;19912;-25
2022/05/28 00:41:26;;;;;;;;;;;;;;;10.86;54.84;100828.41;5043916;28;19912;-25
2022/05/28 00:43:52;;;;;;;;;;;;;;;10.88;54.96;100821.34;5025876;28;19908;-25
2022/05/28 00:46:18;;;;;;;;;;;;;;;10.85;55.15;100823.13;5041751;28;19915;-25
2022/05/28 00:48:44;;;;;;;;;;;;;;;10.85;55.15;100818.75;5044040;28;20272;-25
2022/05/28 00:51:11;;;;;;;;;;;;;;;10.88;55.09;100809.91;5031095;28;19917;-25
2022/05/28 00:53:36;;;;;;;;;;;;;;;10.84;55.72;100818.75;5028053;28;19913;-26
2022/05/28 00:56:05;;;;;;;;;;;;;;;10.84;55.39;100818.75;5046570;28;20008;-25
2022/05/28 00:58:31;;;;;;;;;;;;;;;10.83;55.37;100812.59;5049108;28;19917;-25
2022/05/28 01:00:59;;;;;;;;;;;;;;;10.83;55.88;100817.88;5048033;28;19916;-25
2022/05/28 01:03:27;;;;;;;;;;;;;;;10.80;56.42;100817.88;5047763;28;19909;-25
2022/05/28 01:06:09;;;;;;;;;;;;;;;10.84;55.68;100814.34;5047947;28;19947;-25
2022/05/28 01:08:38;;;;;;;;;;;;;;;10.85;56.07;100820.50;5028674;28;20322;-25
2022/05/28 01:11:22;;;;;;;;;;;;;;;10.86;55.93;100807.28;5014192;28;19921;-25
2022/05/28 01:13:49;;;;;;;;;;;;;;;10.86;55.94;100804.66;5042473;28;19909;-25
2022/05/28 01:16:26;;;;;;;;;;;;;;;10.85;56.09;100807.31;5030683;28;20012;-25
2022/05/28 01:18:56;;;;;;;;;;;;;;;10.86;55.79;100802.03;5039239;28;19912;-25
2022/05/28 01:21:40;;;;;;;;;;;;;;;10.86;55.92;100802.03;5028719;28;19970;-25
2022/05/28 01:24:23;;;;;;;;;;;;;;;10.87;56.00;100808.19;5040703;28;19924;-25
2022/05/28 01:26:56;;;;;;;;;;;;;;;10.84;55.93;100798.50;5042521;28;19924;-25
2022/05/28 01:29:21;;;;;;;;;;;;;;;10.86;55.94;100806.41;5029431;28;19913;-25
2022/05/28 01:31:46;;;;;;;;;;;;;;;10.84;56.22;100798.50;5046515;28;19924;-25
2022/05/28 01:34:12;;;;;;;;;;;;;;;10.84;56.21;100792.38;5029439;28;20260;-25
2022/05/28 01:36:37;;;;;;;;;;;;;;;10.81;56.36;100780.09;5029569;28;19917;-25
2022/05/28 01:39:03;;;;;;;;;;;;;;;10.75;56.93;100782.75;5030409;28;19908;-25
2022/05/28 01:41:31;;;;;;;;;;;;;;;10.77;56.65;100786.25;5029121;28;19924;-25
2022/05/28 01:43:57;;;;;;;;;;;;;;;10.78;56.42;100785.38;5026655;28;20334;-25
2022/05/28 01:46:22;;;;;;;;;;;;;;;10.80;56.30;100783.59;5028508;28;19917;-25
2022/05/28 01:48:48;;;;;;;;;;;;;;;10.79;56.28;100773.94;5021858;28;19909;-25
2022/05/28 01:51:13;;;;;;;;;;;;;;;10.76;56.46;100773.94;5043496;28;19935;-25
2022/05/28 01:56:26;;;;;;;;;;;;;;;10.72;56.81;100756.41;5030372;28;19983;-25
2022/05/28 01:58:51;;;;;;;;;;;;;;;10.75;56.60;100766.94;5023070;28;19909;-25
2022/05/28 02:01:16;;;;;;;;;;;;;;;10.76;56.36;100763.41;5048719;28;19912;-25
2022/05/28 02:03:44;;;;;;;;;;;;;;;10.75;56.20;100773.09;5030287;28;19919;-25
2022/05/28 02:06:09;;;;;;;;;;;;;;;10.76;56.12;100758.13;5030500;28;19936;-25
2022/05/28 02:08:39;;;;;;;;;;;;;;;10.78;56.00;100764.28;5042172;28;20383;-25
2022/05/28 02:11:15;;;;;;;;;;;;;;;10.78;56.06;100761.63;5029034;28;19925;-25
2022/05/28 02:13:43;;;;;;;;;;;;;;;10.80;55.64;100764.25;5042399;28;19917;-25
2022/05/28 02:16:12;;;;;;;;;;;;;;;10.79;55.66;100768.66;5042248;28;20387;-25
2022/05/28 02:18:56;;;;;;;;;;;;;;;10.78;55.76;100766.91;5026517;28;19947;-25
2022/05/28 02:21:40;;;;;;;;;;;;;;;10.78;55.43;100761.63;5029014;28;19931;-25
2022/05/28 02:24:08;;;;;;;;;;;;;;;10.78;55.70;100767.75;5029872;28;19917;-25
2022/05/28 02:26:35;;;;;;;;;;;;;;;10.78;55.57;100751.09;5029981;28;20323;-25
2022/05/28 02:29:00;;;;;;;;;;;;;;;10.79;55.50;100752.81;5040992;28;19913;-25
2022/05/28 02:31:27;;;;;;;;;;;;;;;10.80;55.57;100744.00;5029363;28;19921;-25
2022/05/28 02:33:52;;;;;;;;;;;;;;;10.79;55.31;100752.81;5025518;28;19916;-25
2022/05/28 02:36:17;;;;;;;;;;;;;;;10.77;55.42;100750.19;5030496;28;20352;-25
2022/05/28 02:38:43;;;;;;;;;;;;;;;10.79;55.72;100752.81;5028599;28;20023;-25
2022/05/28 02:41:09;;;;;;;;;;;;;;;10.77;55.56;100747.56;5046119;28;20051;-25
2022/05/28 02:43:40;;;;;;;;;;;;;;;10.78;55.78;100743.16;5045664;28;20507;-25
2022/05/28 02:46:05;;;;;;;;;;;;;;;10.79;55.48;100742.28;5045234;28;20373;-25
2022/05/28 02:48:31;;;;;;;;;;;;;;;10.78;55.42;100730.84;5045777;28;19916;-25
2022/05/28 02:51:07;;;;;;;;;;;;;;;10.75;55.80;100725.59;5012743;28;19936;-25
2022/05/28 02:53:32;;;;;;;;;;;;;;;10.78;56.00;100727.34;5046383;28;19952;-25
2022/05/28 02:55:58;;;;;;;;;;;;;;;10.77;55.95;100734.38;5044346;28;20374;-25
2022/05/28 02:58:23;;;;;;;;;;;;;;;10.77;55.74;100770.41;5047360;28;19909;-25
2022/05/28 03:00:48;;;;;;;;;;;;;;;10.85;55.99;100770.38;5045565;28;19909;-25
2022/05/28 03:03:19;;;;;;;;;;;;;;;10.85;56.10;100757.16;5047297;28;19928;-25
2022/05/28 03:05:44;;;;;;;;;;;;;;;10.85;55.95;100762.44;5047527;28;19908;-25
2022/05/28 03:08:09;;;;;;;;;;;;;;;10.86;55.63;100764.19;5049173;28;19913;-25
2022/05/28 03:10:34;;;;;;;;;;;;;;;10.85;55.98;100767.72;5029126;28;19986;-25
2022/05/28 03:12:59;;;;;;;;;;;;;;;10.85;56.09;100763.34;5043914;28;20330;-25
2022/05/28 03:15:25;;;;;;;;;;;;;;;10.86;55.93;100759.81;5048034;28;20340;-26
2022/05/28 03:20:53;;;;;;;;;;;;;;;10.87;56.04;100756.25;5061407;28;19964;-26
2022/05/28 03:23:18;;;;;;;;;;;;;;;10.87;56.40;100764.19;5051758;28;19917;-26
2022/05/28 03:25:43;;;;;;;;;;;;;;;10.87;56.26;100764.19;5067855;28;19912;-26
2022/05/28 03:28:08;;;;;;;;;;;;;;;10.88;56.50;100763.28;5057916;28;20027;-26
2022/05/28 03:30:34;;;;;;;;;;;;;;;10.88;56.10;100762.44;5050510;28;19924;-26
2022/05/28 03:32:59;;;;;;;;;;;;;;;10.88;56.52;100771.19;5051727;28;19916;-26
2022/05/28 03:35:24;;;;;;;;;;;;;;;10.88;56.54;100760.63;5054665;28;19939;-26
2022/05/28 03:37:49;;;;;;;;;;;;;;;10.86;56.51;100762.44;5053976;28;19916;-26
2022/05/28 03:40:14;;;;;;;;;;;;;;;10.87;56.66;100761.53;5052776;28;20297;-26
2022/05/28 03:42:40;;;;;;;;;;;;;;;10.88;56.73;100771.19;5053064;28;20256;-26
2022/05/28 03:45:05;;;;;;;;;;;;;;;10.90;56.56;100794.94;5055160;28;20384;-26
2022/05/28 03:47:30;;;;;;;;;;;;;;;10.88;56.32;100800.22;5052065;28;19916;-26
2022/05/28 03:49:56;;;;;;;;;;;;;;;10.87;56.87;100816.94;5052061;28;20295;-26
2022/05/28 03:52:21;;;;;;;;;;;;;;;10.87;56.92;100822.22;5039320;28;19920;-26
2022/05/28 03:54:46;;;;;;;;;;;;;;;10.86;57.36;100817.84;5052049;28;19966;-26
2022/05/28 03:57:14;;;;;;;;;;;;;;;10.85;57.66;100809.94;5053821;28;19966;-26
2022/05/28 03:59:42;;;;;;;;;;;;;;;10.85;58.00;100797.63;5034818;28;19913;-26
2022/05/28 04:02:08;;;;;;;;;;;;;;;10.84;57.53;100810.84;5047003;28;19916;-26
2022/05/28 04:04:33;;;;;;;;;;;;;;;10.84;58.02;100798.50;5048677;28;20395;-26
2022/05/28 04:07:01;;;;;;;;;;;;;;;10.85;57.62;100810.84;5042685;28;19920;-26
2022/05/28 04:09:26;;;;;;;;;;;;;;;10.83;57.96;100809.94;5044900;28;19909;-26
2022/05/28 04:11:54;;;;;;;;;;;;;;;10.84;57.88;100814.34;5046850;28;20353;-26
2022/05/28 04:14:26;;;;;;;;;;;;;;;10.81;57.72;100809.09;5053085;28;19916;-26
2022/05/28 04:16:51;;;;;;;;;;;;;;;10.83;57.96;100807.31;5050361;28;19915;-27
2022/05/28 04:19:16;;;;;;;;;;;;;;;10.83;57.99;100817.88;5050624;28;19916;-26
2022/05/28 04:21:41;;;;;;;;;;;;;;;10.80;57.46;100812.59;5052907;28;19913;-26
2022/05/28 04:24:06;;;;;;;;;;;;;;;10.78;58.21;100807.34;5051131;28;19919;-26
2022/05/28 04:26:35;;;;;;;;;;;;;;;10.80;58.04;100812.59;5054143;28;19923;-26
2022/05/28 04:29:00;;;;;;;;;;;;;;;10.81;58.32;100806.47;5050676;28;19928;-26
2022/05/28 04:31:25;;;;;;;;;;;;;;;10.85;58.27;100802.91;5051117;28;19913;-26
2022/05/28 04:33:50;;;;;;;;;;;;;;;10.83;58.22;100804.69;5040947;28;19948;-26
2022/05/28 04:36:15;;;;;;;;;;;;;;;10.90;58.04;100805.50;5042349;28;19944;-26
2022/05/28 04:38:41;;;;;;;;;;;;;;;10.88;58.44;100799.38;5042814;28;20063;-26
2022/05/28 04:41:06;;;;;;;;;;;;;;;10.91;58.48;100796.72;5044178;28;19917;-26
2022/05/28 04:43:31;;;;;;;;;;;;;;;10.95;58.94;100805.47;5071672;28;19909;-26
2022/05/28 04:45:59;;;;;;;;;;;;;;;10.95;59.37;100801.06;5053369;28;19915;-26
2022/05/28 04:48:25;;;;;;;;;;;;;;;10.99;59.47;100796.63;5053098;28;19931;-26
2022/05/28 04:50:50;;;;;;;;;;;;;;;11.00;59.89;100815.09;5053025;28;20318;-26
2022/05/28 04:53:15;;;;;;;;;;;;;;;11.02;59.93;100812.44;5047435;28;19970;-26
2022/05/28 04:55:40;;;;;;;;;;;;;;;11.04;60.05;100815.97;5050806;28;19967;-26
2022/05/28 04:58:10;;;;;;;;;;;;;;;11.06;60.13;100802.72;5054771;28;19924;-26
2022/05/28 05:00:35;;;;;;;;;;;;;;;11.08;60.08;100796.56;5054944;28;19920;-28
2022/05/28 05:03:00;;;;;;;;;;;;;;;11.10;60.24;100801.81;5053855;28;19958;-28
2022/05/28 05:05:27;;;;;;;;;;;;;;;11.09;60.52;100798.31;5052127;28;19966;-28
2022/05/28 05:07:52;;;;;;;;;;;;;;;11.12;60.20;100803.56;5053239;28;19909;-28
2022/05/28 05:10:17;;;;;;;;;;;;;;;11.13;59.87;100800.03;5058653;28;19962;-28
2022/05/28 05:12:42;;;;;;;;;;;;;;;11.12;60.23;100803.56;5053038;28;19966;-28
2022/05/28 05:15:08;;;;;;;;;;;;;;;11.11;60.22;100812.34;5055433;28;19916;-28
2022/05/28 05:17:33;;;;;;;;;;;;;;;11.12;60.25;100807.94;5055142;28;19924;-28
2022/05/28 05:20:01;;;;;;;;;;;;;;;11.12;59.84;100805.31;5051297;28;19919;-28
2022/05/28 05:22:27;;;;;;;;;;;;;;;11.12;60.27;100802.66;5063048;28;19920;-28
2022/05/28 05:24:52;;;;;;;;;;;;;;;11.13;60.01;100815.84;5050314;28;19908;-28
2022/05/28 05:27:17;;;;;;;;;;;;;;;11.13;60.29;100815.84;5065022;28;19908;-28
2022/05/28 05:29:42;;;;;;;;;;;;;;;11.14;60.04;100814.97;5055744;28;19914;-28
2022/05/28 05:32:20;;;;;;;;;;;;;;;11.16;60.43;100810.56;5049518;28;20003;-28
2022/05/28 05:34:45;;;;;;;;;;;;;;;11.19;60.03;100814.03;5055566;28;19917;-26
2022/05/28 05:37:13;;;;;;;;;;;;;;;11.22;60.13;100814.91;5058275;28;19917;-26
2022/05/28 05:42:41;;;;;;;;;;;;;;;11.31;60.40;100811.31;5043665;28;19915;-26
2022/05/28 05:45:07;;;;;;;;;;;;;;;11.35;60.27;100813.03;5075731;28;20007;-26
2022/05/28 05:47:32;;;;;;;;;;;;;;;11.39;61.34;100814.75;5036545;28;19920;-26
2022/05/28 05:49:57;;;;;;;;;;;;;;;11.43;61.15;100826.13;5042855;28;19955;-26
2022/05/28 05:52:23;;;;;;;;;;;;;;;11.48;61.29;100826.09;5045148;28;19939;-26
2022/05/28 05:54:48;;;;;;;;;;;;;;;11.51;61.20;100823.44;5052936;28;19913;-26
2022/05/28 05:57:16;;;;;;;;;;;;;;;11.55;61.44;100818.06;5055295;28;19916;-26
2022/05/28 05:59:41;;;;;;;;;;;;;;;11.61;61.24;100821.56;5053304;28;20007;-26
2022/05/28 06:02:06;;;;;;;;;;;;;;;11.66;60.99;100815.34;5049919;28;20006;-26
2022/05/28 06:04:31;;;;;;;;;;;;;;;11.68;61.14;100813.53;5053821;28;19909;-26
2022/05/28 06:06:57;;;;;;;;;;;;;;;11.74;60.91;100811.72;5049661;28;20579;-26
2022/05/28 06:09:22;;;;;;;;;;;;;;;11.77;60.16;100809.06;5049993;28;19931;-26
2022/05/28 06:11:47;;;;;;;;;;;;;;;11.81;60.58;100814.25;5053926;28;20003;-26
2022/05/28 06:14:12;;;;;;;;;;;;;;;11.85;60.03;100812.47;5054075;28;19912;-26
2022/05/28 06:16:37;;;;;;;;;;;;;;;11.90;60.13;100813.28;5050436;28;19967;-26
2022/05/28 06:19:03;;;;;;;;;;;;;;;11.94;59.98;100815.00;5049826;28;20003;-27
2022/05/28 06:21:28;;;;;;;;;;;;;;;12.00;59.97;100821.13;5052144;28;19909;-26
2022/05/28 06:23:54;;;;;;;;;;;;;;;12.06;59.23;100810.47;5050548;28;19917;-26
2022/05/28 06:26:19;;;;;;;;;;;;;;;12.09;59.24;100806.91;5049709;28;19955;-26
2022/05/28 06:28:50;;;;;;;;;;;;;;;12.15;59.09;100817.41;5051675;28;19915;-26
2022/05/28 06:31:16;;;;;;;;;;;;;;;12.20;58.89;100818.22;5051198;28;20295;-26
2022/05/28 06:33:44;;;;;;;;;;;;;;;12.25;58.50;100820.81;5043193;28;19909;-26
2022/05/28 06:36:10;;;;;;;;;;;;;;;12.27;58.36;100827.81;5046409;28;19912;-26
2022/05/28 06:38:35;;;;;;;;;;;;;;;12.34;57.68;100814.53;5039226;28;19932;-26
2022/05/28 06:41:01;;;;;;;;;;;;;;;12.38;57.59;100813.56;5038189;28;20283;-26
2022/05/28 06:43:26;;;;;;;;;;;;;;;12.40;57.43;100810.00;5052121;28;20330;-26
2022/05/28 06:45:52;;;;;;;;;;;;;;;12.41;57.21;100814.38;5054068;28;20349;-26
2022/05/28 06:48:17;;;;;;;;;;;;;;;12.43;56.90;100811.72;5046527;28;19913;-26
2022/05/28 06:53:26;;;;;;;;;;;;;;;12.55;57.54;100815.97;5048599;28;20379;-26
2022/05/28 06:55:51;;;;;;;;;;;;;;;12.57;56.85;100815.03;5056282;28;19908;-26
2022/05/28 06:58:17;;;;;;;;;;;;;;;12.59;56.59;100822.97;5053032;28;19917;-26
2022/05/28 07:00:48;;;;;;;;;;;;;;;12.59;55.97;100822.97;5051850;28;19915;-26
2022/05/28 07:03:14;;;;;;;;;;;;;;;12.58;56.00;100826.50;5055131;28;19951;-26
2022/05/28 07:05:39;;;;;;;;;;;;;;;12.61;55.84;100825.59;5060840;28;19936;-27
2022/05/28 07:08:05;;;;;;;;;;;;;;;12.61;55.79;100821.19;5055660;28;19912;-26
2022/05/28 07:10:39;;;;;;;;;;;;;;;12.68;55.79;100822.81;5037324;28;19939;-26
2022/05/28 07:13:05;;;;;;;;;;;;;;;12.75;56.03;100822.72;5056265;28;19963;-26
2022/05/28 07:15:45;;;;;;;;;;;;;;;12.81;55.64;100822.63;5055112;28;19971;-26
2022/05/28 07:18:10;;;;;;;;;;;;;;;12.87;55.73;100822.53;5056562;28;20315;-26
2022/05/28 07:20:35;;;;;;;;;;;;;;;12.94;55.97;100824.16;5055161;28;19913;-26
2022/05/28 07:23:11;;;;;;;;;;;;;;;13.03;55.75;100807.25;5055755;28;19936;-26
2022/05/28 07:25:36;;;;;;;;;;;;;;;13.14;55.27;100811.50;5053166;28;19962;-27
2022/05/28 07:28:24;;;;;;;;;;;;;;;13.22;55.55;100817.53;5058330;28;19917;-26
2022/05/28 07:30:47;;;;;;;;;;;;;;;13.32;55.57;100819.13;5054921;28;19974;-27
2022/05/28 07:33:12;;;;;;;;;;;;;;;13.39;55.31;100819.88;5056290;28;19909;-26
2022/05/28 07:35:38;;;;;;;;;;;;;;;13.47;54.27;100827.66;5057285;28;19917;-27
2022/05/28 07:38:06;;;;;;;;;;;;;;;13.52;54.71;100825.84;5058417;28;20613;-27
2022/05/28 07:40:34;;;;;;;;;;;;;;;13.56;54.71;100821.34;5055853;28;19916;-27
2022/05/28 07:42:59;;;;;;;;;;;;;;;13.58;54.52;100819.56;5057315;28;20390;-27
2022/05/28 07:45:24;;;;;;;;;;;;;;;13.62;54.40;100820.38;5057911;28;19921;-27
2022/05/28 07:47:49;;;;;;;;;;;;;;;13.71;53.74;100820.19;5053504;28;19928;-26
2022/05/28 07:50:14;;;;;;;;;;;;;;;13.71;53.73;100818.41;5054489;28;19955;-27
2022/05/28 07:52:40;;;;;;;;;;;;;;;13.76;53.30;100828.03;5059687;28;19923;-26
2022/05/28 07:55:05;;;;;;;;;;;;;;;13.77;53.58;100824.50;5051795;28;19908;-26
2022/05/28 07:57:30;;;;;;;;;;;;;;;13.78;53.43;100818.28;5051577;28;19912;-26
2022/05/28 08:02:58;;;;;;;;;;;;;;;13.83;53.36;100811.09;5053326;28;20000;-26
2022/05/28 08:05:24;;;;;;;;;;;;;;;13.87;53.38;100819.88;5056594;28;20003;-26
2022/05/28 08:07:49;;;;;;;;;;;;;;;13.91;53.23;100803.00;5056154;28;19995;-26
2022/05/28 08:10:14;;;;;;;;;;;;;;;14.05;52.76;100815.97;5056784;28;19927;-26
2022/05/28 08:12:39;;;;;;;;;;;;;;;14.10;52.54;100814.09;5051648;28;19916;-26
2022/05/28 08:15:05;;;;;;;;;;;;;;;14.16;52.28;100815.72;5043458;28;19909;-26
2022/05/28 08:17:31;;;;;;;;;;;;;;;14.24;52.38;100812.00;5041088;28;19913;-27
2022/05/28 08:19:56;;;;;;;;;;;;;;;14.30;52.45;100816.31;5042255;28;19916;-26
2022/05/28 08:25:08;;;;;;;;;;;;;;;14.38;51.78;100821.44;5041915;28;19920;-26
2022/05/28 08:27:35;;;;;;;;;;;;;;;14.41;51.91;100818.72;5048089;28;19924;-26
2022/05/28 08:30:00;;;;;;;;;;;;;;;14.41;51.64;100829.34;5040226;28;19913;-26
2022/05/28 08:32:25;;;;;;;;;;;;;;;14.46;51.86;100819.50;5045081;28;19921;-26
2022/05/28 08:34:50;;;;;;;;;;;;;;;14.54;52.16;100821.09;5042457;28;19917;-26
2022/05/28 08:37:16;;;;;;;;;;;;;;;14.59;52.33;100822.72;5040843;28;19909;-26
2022/05/28 08:39:41;;;;;;;;;;;;;;;14.66;52.26;100836.72;5041818;28;19931;-26
2022/05/28 08:42:06;;;;;;;;;;;;;;;14.70;52.12;100843.69;5041438;28;20380;-27
2022/05/28 08:44:39;;;;;;;;;;;;;;;14.73;51.82;100834.78;5041529;28;19909;-26
2022/05/28 08:47:13;;;;;;;;;;;;;;;14.73;51.62;100843.63;5055334;28;19952;-26
2022/05/28 08:49:38;;;;;;;;;;;;;;;14.74;51.95;100845.38;5046848;28;20287;-26
2022/05/28 08:52:05;;;;;;;;;;;;;;;14.77;51.86;100838.25;5043869;28;20451;-26
2022/05/28 08:54:35;;;;;;;;;;;;;;;14.79;51.56;100837.34;5051514;28;19915;-26
2022/05/28 08:57:06;;;;;;;;;;;;;;;14.80;51.72;100844.38;5052758;28;19916;-26
2022/05/28 08:59:33;;;;;;;;;;;;;;;14.81;51.49;100847.94;5055441;28;19921;-26
2022/05/28 09:01:58;;;;;;;;;;;;;;;14.84;50.95;100853.16;5062165;28;19932;-26
2022/05/28 09:04:29;;;;;;;;;;;;;;;14.84;50.91;100850.50;5058403;28;19909;-26
2022/05/28 09:06:54;;;;;;;;;;;;;;;14.83;51.27;100846.09;5026591;28;19909;-26
2022/05/28 09:09:23;;;;;;;;;;;;;;;14.86;51.06;100859.28;5057470;28;20406;-26
2022/05/28 09:12:04;;;;;;;;;;;;;;;14.87;51.25;100845.97;5040566;28;20447;-26
2022/05/28 09:14:39;;;;;;;;;;;;;;;14.90;51.32;100849.50;5056907;28;20307;-26
2022/05/28 09:17:20;;;;;;;;;;;;;;;14.95;51.50;100864.41;5040608;28;19916;-26
2022/05/28 09:19:45;;;;;;;;;;;;;;;14.94;51.57;100862.63;5042281;22;20373;-27
2022/05/28 09:22:11;;;;;;;;;;;;;;;14.97;51.61;100857.25;5013547;28;19929;-28
2022/05/28 09:24:37;;;;;;;;;;;;;;;15.01;51.66;100858.06;5019266;28;19921;-28
2022/05/28 09:27:04;;;;;;;;;;;;;;;15.07;50.94;100857.91;5021956;28;20003;-27
2022/05/28 09:29:48;;;;;;;;;;;;;;;15.12;51.07;100852.47;5011724;28;19909;-27
2022/05/28 09:32:19;;;;;;;;;;;;;;;15.20;51.04;100852.28;5012580;28;20512;-28
2022/05/28 09:34:51;;;;;;;;;;;;;;;15.31;50.79;100859.97;5012235;28;20350;-28
2022/05/28 09:37:25;;;;;;;;;;;;;;;15.33;50.18;100863.44;5007961;28;20415;-28
2022/05/28 09:39:57;;;;;;;;;;;;;;;15.34;50.09;100860.75;5012509;28;21063;-28
2022/05/28 09:42:44;;;;;;;;;;;;;;;15.38;50.79;100858.91;5007924;28;19913;-28
2022/05/28 09:45:15;;;;;;;;;;;;;;;15.43;50.71;100867.63;5010288;28;19909;-28
2022/05/28 09:47:48;;;;;;;;;;;;;;;15.54;50.58;100856.69;5008584;28;20331;-26
2022/05/28 09:50:24;;;;;;;;;;;;;;;15.61;50.34;100852.09;5008481;28;19917;-26
2022/05/28 09:55:52;;;;;;;;;;;;;;;15.72;50.17;100850.03;5012443;28;20288;-26
2022/05/28 09:58:18;;;;;;;;;;;;;;;15.80;49.74;100852.44;5016248;28;19909;-26
2022/05/28 10:00:43;;;;;;;;;;;;;;;15.86;49.73;100841.66;5023113;28;19916;-26
2022/05/28 10:05:56;;;;;;;;;;;;;;;16.00;49.69;100843.06;5021019;28;19925;-26
2022/05/28 10:08:28;;;;;;;;;;;;;;;16.05;49.39;100841.16;5018475;28;19964;-26
2022/05/28 10:10:54;;;;;;;;;;;;;;;16.08;49.48;100848.16;5013429;28;19957;-26
2022/05/28 10:13:24;;;;;;;;;;;;;;;16.10;49.32;100851.63;5009825;28;20338;-26
2022/05/28 10:15:53;;;;;;;;;;;;;;;16.13;49.23;100847.09;5005883;28;19963;-26
2022/05/28 10:18:19;;;;;;;;;;;;;;;16.18;49.46;100841.66;5010332;28;20605;-26
2022/05/28 10:20:44;;;;;;;;;;;;;;;16.21;48.84;100838.88;5012634;28;19909;-26
2022/05/28 10:23:18;;;;;;;;;;;;;;;16.28;49.15;100837.78;5019911;28;20015;-26
2022/05/28 10:25:50;;;;;;;;;;;;;;;16.32;48.19;100829.72;5010537;28;20360;-26
2022/05/28 10:28:29;;;;;;;;;;;;;;;16.34;47.98;100830.56;5009569;28;19918;-26
2022/05/28 10:30:55;;;;;;;;;;;;;;;16.45;48.18;100830.19;5014343;28;19917;-26
2022/05/28 10:33:21;;;;;;;;;;;;;;;16.50;47.26;100834.47;5024521;28;19916;-26
2022/05/28 10:35:47;;;;;;;;;;;;;;;16.53;46.08;100830.81;5026566;28;19924;-26
2022/05/28 10:38:19;;;;;;;;;;;;;;;16.58;45.58;100830.69;5019551;28;20266;-26
2022/05/28 10:40:52;;;;;;;;;;;;;;;16.63;45.92;100820.75;5024987;28;19913;-26
2022/05/28 10:43:24;;;;;;;;;;;;;;;16.66;45.50;100824.22;5014398;28;20340;-26
2022/05/28 10:46:09;;;;;;;;;;;;;;;16.70;45.00;100819.63;5018274;28;19913;-26
2022/05/28 10:48:34;;;;;;;;;;;;;;;16.73;45.09;100814.22;5021947;28;20004;-26
2022/05/28 10:51:10;;;;;;;;;;;;;;;16.71;44.89;100820.53;5012288;28;20032;-26
2022/05/28 10:53:48;;;;;;;;;;;;;;;16.76;45.31;100810.56;5012425;28;19913;-26
2022/05/28 10:56:20;;;;;;;;;;;;;;;16.87;45.34;100808.44;5013641;28;19920;-26
2022/05/28 10:59:04;;;;;;;;;;;;;;;16.90;44.74;100818.09;5014391;28;19917;-26
2022/05/28 11:01:40;;;;;;;;;;;;;;;16.92;45.36;100810.94;5008914;28;19918;-26
2022/05/28 11:04:22;;;;;;;;;;;;;;;16.94;44.76;100819.75;5008908;28;19961;-26
2022/05/28 11:07:06;;;;;;;;;;;;;;;17.07;44.92;100808.72;5011862;28;19909;-26
2022/05/28 11:09:37;;;;;;;;;;;;;;;17.18;44.50;100806.56;5014636;28;20022;-26
2022/05/28 11:12:02;;;;;;;;;;;;;;;17.25;44.29;100802.75;5014055;28;19917;-26
2022/05/28 11:14:28;;;;;;;;;;;;;;;17.34;44.33;100800.69;5015080;28;19915;-26
2022/05/28 11:17:16;;;;;;;;;;;;;;;17.39;44.17;100804.06;5010208;28;19915;-26
2022/05/28 11:19:45;;;;;;;;;;;;;;;17.40;43.93;100805.78;5007220;28;19948;-26
2022/05/28 11:22:16;;;;;;;;;;;;;;;17.45;43.78;100814.50;5020544;28;20283;-26
2022/05/28 11:24:55;;;;;;;;;;;;;;;17.47;43.94;100796.63;5024569;28;20341;-26
2022/05/28 11:27:34;;;;;;;;;;;;;;;17.53;43.88;100807.09;5013173;28;20496;-26
2022/05/28 11:29:59;;;;;;;;;;;;;;;17.57;43.49;100806.06;5011059;28;19916;-26
2022/05/28 11:32:29;;;;;;;;;;;;;;;17.54;43.64;100792.84;5016328;28;19921;-26
2022/05/28 11:35:18;;;;;;;;;;;;;;;17.57;43.90;100797.16;5011645;28;19992;-26
2022/05/28 11:38:04;;;;;;;;;;;;;;;17.60;43.19;100797.06;4994659;28;19944;-26
2022/05/28 11:40:37;;;;;;;;;;;;;;;17.58;43.12;100782.94;5015424;28;20349;-26
2022/05/28 11:43:07;;;;;;;;;;;;;;;17.60;43.40;100801.56;5020833;28;19913;-26
2022/05/28 11:45:47;;;;;;;;;;;;;;;17.55;42.88;100801.72;5017332;28;20011;-29
2022/05/28 11:51:27;;;;;;;;;;;;;;;17.52;43.10;100797.38;5014656;28;19916;-29
2022/05/28 11:51:30;;;;;;;;;;;;;;;17.54;43.16;100798.16;4995539;28;19968;-26
2022/05/28 11:54:05;;;;;;;;;;;;;;;17.52;43.49;100805.38;5011209;28;19952;-26
2022/05/28 11:56:30;;;;;;;;;;;;;;;17.49;43.70;100801.91;5011819;28;19972;-26
2022/05/28 11:58:57;;;;;;;;;;;;;;;17.49;43.68;100801.91;5011487;28;20327;-26
2022/05/28 12:01:27;;;;;;;;;;;;;;;17.45;43.41;100793.19;5011979;28;19924;-26
2022/05/28 12:03:52;;;;;;;;;;;;;;;17.43;43.43;100795.00;5011188;28;19913;-26
2022/05/28 12:06:22;;;;;;;;;;;;;;;17.42;43.74;100795.94;5012152;28;19917;-26
2022/05/28 12:09:03;;;;;;;;;;;;;;;17.43;43.70;100800.34;5012803;28;19917;-26
2022/05/28 12:11:39;;;;;;;;;;;;;;;17.48;43.74;100792.19;5024589;28;20040;-26
2022/05/28 12:14:06;;;;;;;;;;;;;;;17.46;43.75;100797.56;5005725;28;19959;-26
2022/05/28 12:16:38;;;;;;;;;;;;;;;17.47;43.91;100803.78;5009610;28;20448;-26
2022/05/28 12:19:05;;;;;;;;;;;;;;;17.43;44.48;100801.22;5013373;28;19917;-26
2022/05/28 12:21:41;;;;;;;;;;;;;;;17.38;44.79;100797.00;5014301;28;19914;-26
2022/05/28 12:24:18;;;;;;;;;;;;;;;17.35;45.09;100792.63;5023643;28;19917;-26
2022/05/28 12:27:07;;;;;;;;;;;;;;;17.34;45.55;100800.69;5010678;28;19967;-26
2022/05/28 12:29:38;;;;;;;;;;;;;;;17.35;45.94;100797.09;5022540;28;20326;-26
2022/05/28 12:32:18;;;;;;;;;;;;;;;17.37;46.26;100796.09;5010260;28;20373;-26
2022/05/28 12:34:54;;;;;;;;;;;;;;;17.42;46.34;100783.50;5014121;28;19915;-26
2022/05/28 12:37:28;;;;;;;;;;;;;;;17.47;47.10;100775.31;5011771;28;20335;-26
2022/05/28 12:39:56;;;;;;;;;;;;;;;17.49;47.27;100773.47;5009134;28;19913;-26
2022/05/28 12:42:23;;;;;;;;;;;;;;;17.44;47.13;100765.63;5012498;28;20008;-26
2022/05/28 12:44:49;;;;;;;;;;;;;;;17.55;46.61;100773.22;5011632;28;19909;-26
2022/05/28 12:47:21;;;;;;;;;;;;;;;17.69;46.18;100771.84;5010575;28;19956;-26
2022/05/28 12:49:48;;;;;;;;;;;;;;;17.65;46.15;100773.78;5011035;28;19920;-26
2022/05/28 12:52:21;;;;;;;;;;;;;;;17.71;46.34;100770.03;5015667;28;19924;-26
2022/05/28 12:54:48;;;;;;;;;;;;;;;17.75;46.38;100766.31;5009443;28;19913;-26
2022/05/28 12:57:13;;;;;;;;;;;;;;;17.89;44.66;100764.88;5004015;28;19967;-26
2022/05/28 12:59:47;;;;;;;;;;;;;;;18.02;43.95;100765.28;5009146;28;19936;-26
2022/05/28 13:02:16;;;;;;;;;;;;;;;18.05;44.12;100782.06;5013735;28;19909;-26
2022/05/28 13:05:07;;;;;;;;;;;;;;;18.01;45.20;100795.59;5012538;28;19916;-26